createdAt,value
2019-03-17T00:00:01.739Z,95.39
2019-03-17T00:01:01.705Z,95.39
2019-03-17T00:02:01.699Z,94.97
2019-03-17T00:03:01.688Z,95.07
2019-03-17T00:04:01.753Z,95.18
2019-03-17T00:05:01.669Z,95.07
2019-03-17T00:06:01.650Z,95.59
2019-03-17T00:07:01.671Z,94.97
2019-03-17T00:08:01.703Z,95.59
2019-03-17T00:09:01.618Z,95.39
2019-03-17T00:10:01.618Z,95.39
2019-03-17T00:11:01.678Z,95.07
2019-03-17T00:12:01.636Z,95.07
2019-03-17T00:13:01.606Z,95.39
2019-03-17T00:14:01.591Z,95.59
2019-03-17T00:15:05.573Z,94.76
2019-03-17T00:16:01.611Z,95.39
2019-03-17T00:17:01.545Z,95.39
2019-03-17T00:18:01.591Z,95.59
2019-03-17T00:19:01.523Z,95.39
2019-03-17T00:20:01.573Z,95.49
2019-03-17T00:21:01.505Z,95.53
2019-03-17T00:22:01.500Z,95.80
2019-03-17T00:23:01.529Z,95.59
2019-03-17T00:24:01.457Z,95.53
2019-03-17T00:25:09.131Z,95.49
2019-03-17T00:26:02.434Z,95.53
2019-03-17T00:27:01.442Z,95.49
2019-03-17T00:28:01.435Z,95.22
2019-03-17T00:29:01.423Z,95.12
2019-03-17T00:30:01.395Z,94.70
2019-03-17T00:31:01.382Z,94.70
2019-03-17T00:32:01.369Z,94.70
2019-03-17T00:33:01.372Z,94.70
2019-03-17T00:34:01.395Z,94.81
2019-03-17T00:35:01.382Z,94.60
2019-03-17T00:36:01.329Z,94.49
2019-03-17T00:37:01.366Z,94.81
2019-03-17T00:38:01.308Z,94.60
2019-03-17T00:39:01.348Z,94.70
2019-03-17T00:40:01.304Z,94.64
2019-03-17T00:41:01.384Z,94.49
2019-03-17T00:42:01.266Z,94.81
2019-03-17T00:43:01.297Z,94.33
2019-03-17T00:44:01.319Z,94.85
2019-03-17T00:45:01.232Z,94.23
2019-03-17T00:46:01.225Z,94.85
2019-03-17T00:47:01.243Z,94.49
2019-03-17T00:48:01.204Z,94.85
2019-03-17T00:49:01.206Z,94.74
2019-03-17T00:50:01.262Z,94.64
2019-03-17T00:51:01.164Z,95.68
2019-03-17T00:52:01.159Z,95.68
2019-03-17T00:53:01.167Z,95.68
2019-03-17T00:54:01.149Z,95.68
2019-03-17T00:55:01.146Z,94.85
2019-03-17T00:56:01.279Z,95.16
2019-03-17T00:57:01.103Z,95.16
2019-03-17T00:58:01.089Z,96.41
2019-03-17T00:59:01.084Z,95.78
2019-03-17T01:00:01.254Z,95.99
2019-03-17T01:01:01.071Z,95.78
2019-03-17T01:02:01.061Z,95.78
2019-03-17T01:03:01.090Z,95.78
2019-03-17T01:04:01.354Z,96.20
2019-03-17T01:05:01.022Z,96.09
2019-03-17T01:06:01.020Z,95.89
2019-03-17T01:07:00.995Z,96.09
2019-03-17T01:08:01.036Z,96.72
2019-03-17T01:09:00.978Z,96.20
2019-03-17T01:10:00.979Z,96.34
2019-03-17T01:11:00.961Z,96.86
2019-03-17T01:12:00.939Z,96.51
2019-03-17T01:13:00.940Z,96.66
2019-03-17T01:14:00.944Z,97.17
2019-03-17T01:15:00.922Z,97.59
2019-03-17T01:16:00.894Z,97.28
2019-03-17T01:17:00.924Z,96.86
2019-03-17T01:18:00.987Z,97.38
2019-03-17T01:19:00.883Z,97.28
2019-03-17T01:20:00.870Z,97.59
2019-03-17T01:21:00.852Z,97.17
2019-03-17T01:22:00.910Z,97.28
2019-03-17T01:23:00.821Z,97.17
2019-03-17T01:24:00.839Z,97.53
2019-03-17T01:25:00.801Z,97.43
2019-03-17T01:26:00.799Z,97.53
2019-03-17T01:27:00.802Z,97.43
2019-03-17T01:28:00.776Z,97.53
2019-03-17T01:29:00.786Z,97.53
2019-03-17T01:30:00.767Z,97.43
2019-03-17T01:31:00.763Z,97.68
2019-03-17T01:32:00.722Z,97.68
2019-03-17T01:33:00.710Z,97.47
2019-03-17T01:34:00.783Z,97.43
2019-03-17T01:35:08.994Z,97.27
2019-03-17T01:36:01.685Z,97.27
2019-03-17T01:37:00.665Z,97.47
2019-03-17T01:38:00.653Z,97.27
2019-03-17T01:39:00.679Z,97.06
2019-03-17T01:40:00.677Z,97.47
2019-03-17T01:41:00.625Z,97.27
2019-03-17T01:42:00.611Z,97.27
2019-03-17T01:43:00.612Z,97.16
2019-03-17T01:44:00.634Z,96.95
2019-03-17T01:45:00.578Z,97.47
2019-03-17T01:46:00.569Z,97.16
2019-03-17T01:47:00.565Z,97.37
2019-03-17T01:48:00.647Z,97.47
2019-03-17T01:49:00.548Z,97.47
2019-03-17T01:50:00.540Z,97.27
2019-03-17T01:51:00.515Z,97.78
2019-03-17T01:52:00.515Z,97.27
2019-03-17T01:53:00.505Z,97.31
2019-03-17T01:54:00.582Z,98.03
2019-03-17T01:55:00.479Z,97.83
2019-03-17T01:56:00.460Z,97.72
2019-03-17T01:57:00.487Z,97.41
2019-03-17T01:58:00.453Z,97.41
2019-03-17T01:59:00.452Z,97.62
2019-03-17T02:00:00.425Z,97.72
2019-03-17T02:01:00.406Z,97.72
2019-03-17T02:02:00.451Z,97.52
2019-03-17T02:03:00.386Z,97.52
2019-03-17T02:04:00.391Z,97.62
2019-03-17T02:05:00.400Z,97.93
2019-03-17T02:06:00.350Z,97.93
2019-03-17T02:07:00.341Z,97.72
2019-03-17T02:08:00.336Z,98.03
2019-03-17T02:09:00.367Z,97.72
2019-03-17T02:10:00.373Z,97.41
2019-03-17T02:11:00.328Z,97.72
2019-03-17T02:12:00.310Z,97.93
2019-03-17T02:13:00.279Z,97.31
2019-03-17T02:14:00.268Z,97.41
2019-03-17T02:15:00.430Z,97.41
2019-03-17T02:16:00.272Z,98.03
2019-03-17T02:17:00.289Z,97.93
2019-03-17T02:18:00.232Z,97.72
2019-03-17T02:19:00.222Z,97.41
2019-03-17T02:20:00.370Z,97.83
2019-03-17T02:21:00.191Z,97.88
2019-03-17T02:22:00.198Z,97.62
2019-03-17T02:23:00.198Z,97.62
2019-03-17T02:24:00.162Z,97.72
2019-03-17T02:25:00.372Z,97.93
2019-03-17T02:26:00.148Z,98.66
2019-03-17T02:27:00.137Z,98.86
2019-03-17T02:28:00.117Z,97.93
2019-03-17T02:29:00.120Z,97.93
2019-03-17T02:30:00.300Z,98.14
2019-03-17T02:31:00.085Z,97.62
2019-03-17T02:32:00.084Z,97.41
2019-03-17T02:33:00.104Z,97.72
2019-03-17T02:34:00.060Z,97.41
2019-03-17T02:35:00.042Z,97.93
2019-03-17T02:36:00.038Z,97.62
2019-03-17T02:37:00.014Z,97.93
2019-03-17T02:38:00.208Z,97.98
2019-03-17T02:38:59.995Z,97.98
2019-03-17T02:39:59.984Z,98.08
2019-03-17T02:40:59.976Z,98.08
2019-03-17T02:41:59.964Z,97.77
2019-03-17T02:42:59.991Z,97.88
2019-03-17T02:44:00.018Z,97.98
2019-03-17T02:44:59.951Z,97.45
2019-03-17T02:46:02.860Z,97.83
2019-03-17T02:46:59.910Z,97.25
2019-03-17T02:47:59.899Z,97.41
2019-03-17T02:48:59.887Z,97.35
2019-03-17T02:49:59.929Z,97.25
2019-03-17T02:51:00.438Z,97.35
2019-03-17T02:51:59.858Z,97.56
2019-03-17T02:52:59.858Z,97.35
2019-03-17T02:53:59.829Z,97.35
2019-03-17T02:54:59.836Z,97.88
2019-03-17T02:55:59.805Z,97.67
2019-03-17T02:56:59.802Z,97.52
2019-03-17T02:57:59.796Z,97.77
2019-03-17T02:58:59.779Z,97.56
2019-03-17T02:59:59.931Z,97.62
2019-03-17T03:00:59.808Z,97.25
2019-03-17T03:01:59.770Z,97.67
2019-03-17T03:02:59.730Z,97.25
2019-03-17T03:03:59.724Z,97.56
2019-03-17T03:04:59.790Z,97.67
2019-03-17T03:05:59.705Z,97.77
2019-03-17T03:06:59.693Z,97.77
2019-03-17T03:07:59.681Z,97.67
2019-03-17T03:08:59.679Z,97.56
2019-03-17T03:09:59.660Z,97.77
2019-03-17T03:10:59.649Z,97.77
2019-03-17T03:11:59.676Z,97.67
2019-03-17T03:12:59.639Z,97.35
2019-03-17T03:13:59.671Z,97.04
2019-03-17T03:14:59.602Z,97.04
2019-03-17T03:15:59.592Z,97.25
2019-03-17T03:16:59.724Z,97.14
2019-03-17T03:17:59.592Z,97.56
2019-03-17T03:18:59.566Z,97.56
2019-03-17T03:19:59.567Z,97.35
2019-03-17T03:20:59.542Z,97.30
2019-03-17T03:21:59.530Z,97.14
2019-03-17T03:22:59.550Z,97.30
2019-03-17T03:23:59.554Z,97.25
2019-03-17T03:24:59.512Z,97.25
2019-03-17T03:25:59.494Z,97.30
2019-03-17T03:26:59.485Z,97.04
2019-03-17T03:27:59.479Z,97.09
2019-03-17T03:28:59.451Z,97.56
2019-03-17T03:29:59.444Z,97.09
2019-03-17T03:30:59.436Z,97.30
2019-03-17T03:31:59.417Z,97.67
2019-03-17T03:32:59.419Z,97.45
2019-03-17T03:33:59.410Z,97.67
2019-03-17T03:34:59.474Z,97.45
2019-03-17T03:36:10.553Z,97.45
2019-03-17T03:37:00.555Z,97.71
2019-03-17T03:37:59.383Z,97.81
2019-03-17T03:38:59.374Z,97.56
2019-03-17T03:39:59.342Z,97.81
2019-03-17T03:40:59.378Z,97.56
2019-03-17T03:41:59.310Z,97.71
2019-03-17T03:42:59.322Z,97.56
2019-03-17T03:43:59.310Z,97.35
2019-03-17T03:44:59.346Z,97.61
2019-03-17T03:45:59.266Z,97.40
2019-03-17T03:46:59.254Z,97.40
2019-03-17T03:47:59.257Z,97.40
2019-03-17T03:48:59.232Z,98.08
2019-03-17T03:49:59.234Z,98.02
2019-03-17T03:50:59.234Z,98.23
2019-03-17T03:51:59.223Z,98.02
2019-03-17T03:52:59.207Z,97.50
2019-03-17T03:53:59.198Z,97.81
2019-03-17T03:54:59.188Z,98.02
2019-03-17T03:55:59.190Z,98.23
2019-03-17T03:56:59.163Z,98.27
2019-03-17T03:57:59.150Z,98.65
2019-03-17T03:58:59.129Z,97.92
2019-03-17T03:59:59.185Z,97.71
2019-03-17T04:00:59.187Z,97.61
2019-03-17T04:01:59.201Z,97.61
2019-03-17T04:02:59.180Z,97.50
2019-03-17T04:03:59.156Z,98.07
2019-03-17T04:04:59.270Z,97.75
2019-03-17T04:05:59.070Z,97.96
2019-03-17T04:06:59.047Z,97.55
2019-03-17T04:07:59.039Z,98.02
2019-03-17T04:08:59.019Z,98.27
2019-03-17T04:09:59.013Z,97.96
2019-03-17T04:10:59.063Z,97.96
2019-03-17T04:11:58.984Z,97.96
2019-03-17T04:12:58.980Z,97.44
2019-03-17T04:13:58.978Z,97.86
2019-03-17T04:14:58.986Z,97.34
2019-03-17T04:15:58.954Z,97.70
2019-03-17T04:16:58.962Z,97.59
2019-03-17T04:17:58.934Z,97.34
2019-03-17T04:18:58.913Z,97.65
2019-03-17T04:19:59.056Z,97.91
2019-03-17T04:20:58.912Z,97.65
2019-03-17T04:21:58.876Z,97.65
2019-03-17T04:22:58.867Z,97.86
2019-03-17T04:23:58.861Z,97.80
2019-03-17T04:24:58.879Z,97.49
2019-03-17T04:25:58.916Z,97.70
2019-03-17T04:26:59.731Z,97.80
2019-03-17T04:27:58.808Z,97.59
2019-03-17T04:28:58.805Z,98.01
2019-03-17T04:29:58.798Z,97.80
2019-03-17T04:30:58.793Z,97.80
2019-03-17T04:31:58.772Z,97.91
2019-03-17T04:32:58.764Z,97.91
2019-03-17T04:33:58.776Z,97.80
2019-03-17T04:34:58.865Z,97.91
2019-03-17T04:35:58.729Z,97.70
2019-03-17T04:36:58.722Z,97.59
2019-03-17T04:37:58.705Z,97.59
2019-03-17T04:38:58.690Z,98.01
2019-03-17T04:39:58.686Z,98.05
2019-03-17T04:40:58.692Z,97.91
2019-03-17T04:41:58.711Z,97.70
2019-03-17T04:42:58.663Z,97.49
2019-03-17T04:43:58.656Z,97.17
2019-03-17T04:44:58.627Z,97.38
2019-03-17T04:45:58.648Z,97.07
2019-03-17T04:46:58.641Z,97.17
2019-03-17T04:47:58.592Z,97.49
2019-03-17T04:48:58.700Z,97.17
2019-03-17T04:49:58.623Z,97.49
2019-03-17T04:50:58.569Z,97.74
2019-03-17T04:51:58.564Z,97.28
2019-03-17T04:52:58.623Z,97.74
2019-03-17T04:53:58.565Z,97.49
2019-03-17T04:54:58.548Z,97.49
2019-03-17T04:55:58.520Z,97.49
2019-03-17T04:56:58.556Z,97.17
2019-03-17T04:57:58.484Z,97.38
2019-03-17T04:58:58.496Z,97.70
2019-03-17T04:59:58.526Z,97.17
2019-03-17T05:00:58.463Z,96.76
2019-03-17T05:01:58.462Z,96.97
2019-03-17T05:02:58.468Z,96.70
2019-03-17T05:03:58.426Z,97.01
2019-03-17T05:04:58.414Z,97.01
2019-03-17T05:05:58.430Z,96.97
2019-03-17T05:06:58.417Z,97.53
2019-03-17T05:07:58.423Z,97.38
2019-03-17T05:08:58.365Z,97.70
2019-03-17T05:09:58.370Z,97.33
2019-03-17T05:10:58.386Z,97.49
2019-03-17T05:11:58.406Z,97.53
2019-03-17T05:12:58.326Z,97.43
2019-03-17T05:13:58.323Z,97.43
2019-03-17T05:14:58.301Z,97.43
2019-03-17T05:15:58.404Z,97.49
2019-03-17T05:16:58.337Z,97.53
2019-03-17T05:17:58.279Z,97.74
2019-03-17T05:18:58.265Z,97.53
2019-03-17T05:19:58.277Z,97.43
2019-03-17T05:20:58.273Z,97.53
2019-03-17T05:21:58.273Z,97.43
2019-03-17T05:22:58.248Z,97.33
2019-03-17T05:23:58.215Z,97.33
2019-03-17T05:24:58.200Z,97.53
2019-03-17T05:25:58.204Z,97.53
2019-03-17T05:26:58.217Z,97.64
2019-03-17T05:27:58.171Z,97.53
2019-03-17T05:28:58.174Z,98.05
2019-03-17T05:29:58.139Z,97.74
2019-03-17T05:30:58.154Z,97.64
2019-03-17T05:31:58.128Z,98.05
2019-03-17T05:32:58.154Z,97.85
2019-03-17T05:33:58.116Z,97.74
2019-03-17T05:34:58.106Z,97.85
2019-03-17T05:35:58.075Z,97.22
2019-03-17T05:37:06.256Z,97.28
2019-03-17T05:37:59.059Z,98.01
2019-03-17T05:38:58.042Z,97.95
2019-03-17T05:39:58.045Z,97.74
2019-03-17T05:40:58.173Z,97.85
2019-03-17T05:41:58.030Z,97.70
2019-03-17T05:42:58.031Z,97.53
2019-03-17T05:43:58.015Z,97.22
2019-03-17T05:44:57.982Z,97.59
2019-03-17T05:45:57.984Z,98.05
2019-03-17T05:46:57.960Z,97.91
2019-03-17T05:47:58.021Z,97.91
2019-03-17T05:48:57.945Z,98.01
2019-03-17T05:49:57.956Z,98.63
2019-03-17T05:50:57.913Z,98.32
2019-03-17T05:51:57.926Z,98.63
2019-03-17T05:52:57.898Z,98.53
2019-03-17T05:53:57.912Z,98.22
2019-03-17T05:54:57.905Z,98.43
2019-03-17T05:55:57.858Z,99.15
2019-03-17T05:56:57.879Z,99.01
2019-03-17T05:57:57.855Z,99.21
2019-03-17T05:58:57.850Z,98.59
2019-03-17T05:59:57.823Z,98.07
2019-03-17T06:00:57.804Z,98.53
2019-03-17T06:01:57.794Z,98.48
2019-03-17T06:02:57.905Z,98.69
2019-03-17T06:03:57.772Z,98.48
2019-03-17T06:04:57.857Z,98.48
2019-03-17T06:05:57.796Z,98.48
2019-03-17T06:06:57.752Z,98.90
2019-03-17T06:07:57.744Z,97.86
2019-03-17T06:08:57.738Z,97.75
2019-03-17T06:09:57.765Z,97.75
2019-03-17T06:10:57.710Z,97.86
2019-03-17T06:11:57.717Z,97.65
2019-03-17T06:12:57.691Z,97.13
2019-03-17T06:13:57.707Z,97.65
2019-03-17T06:14:57.673Z,97.24
2019-03-17T06:15:57.673Z,97.24
2019-03-17T06:16:57.663Z,97.34
2019-03-17T06:17:57.658Z,98.07
2019-03-17T06:18:57.750Z,97.24
2019-03-17T06:19:57.620Z,97.75
2019-03-17T06:20:57.734Z,97.75
2019-03-17T06:22:00.386Z,97.75
2019-03-17T06:22:57.582Z,97.61
2019-03-17T06:23:57.568Z,97.61
2019-03-17T06:24:57.572Z,97.61
2019-03-17T06:25:57.602Z,97.71
2019-03-17T06:26:57.585Z,97.61
2019-03-17T06:27:57.561Z,97.40
2019-03-17T06:28:57.508Z,97.71
2019-03-17T06:29:57.516Z,97.92
2019-03-17T06:30:57.491Z,97.50
2019-03-17T06:31:57.635Z,97.19
2019-03-17T06:32:57.477Z,97.30
2019-03-17T06:33:57.463Z,97.30
2019-03-17T06:34:57.453Z,97.25
2019-03-17T06:35:57.423Z,97.88
2019-03-17T06:36:57.421Z,97.35
2019-03-17T06:37:57.440Z,97.25
2019-03-17T06:38:57.404Z,97.56
2019-03-17T06:39:57.393Z,97.35
2019-03-17T06:40:57.375Z,97.45
2019-03-17T06:41:57.391Z,97.88
2019-03-17T06:42:57.856Z,97.25
2019-03-17T06:43:57.436Z,97.25
2019-03-17T06:44:57.349Z,97.04
2019-03-17T06:45:57.328Z,97.25
2019-03-17T06:46:57.356Z,97.25
2019-03-17T06:47:57.360Z,97.56
2019-03-17T06:48:57.305Z,97.45
2019-03-17T06:49:57.272Z,97.52
2019-03-17T06:50:57.269Z,97.31
2019-03-17T06:51:57.277Z,97.67
2019-03-17T06:52:57.271Z,96.89
2019-03-17T06:53:57.412Z,96.89
2019-03-17T06:54:57.306Z,96.89
2019-03-17T06:55:57.257Z,96.69
2019-03-17T06:56:57.209Z,97.58
2019-03-17T06:57:57.203Z,97.16
2019-03-17T06:58:57.268Z,97.83
2019-03-17T06:59:57.322Z,96.89
2019-03-17T07:00:57.220Z,96.75
2019-03-17T07:01:57.146Z,96.75
2019-03-17T07:02:57.141Z,96.54
2019-03-17T07:03:57.119Z,96.50
2019-03-17T07:04:57.152Z,96.50
2019-03-17T07:05:57.157Z,97.43
2019-03-17T07:06:57.258Z,97.22
2019-03-17T07:07:57.172Z,97.43
2019-03-17T07:08:57.068Z,96.76
2019-03-17T07:09:57.055Z,96.97
2019-03-17T07:10:57.155Z,96.45
2019-03-17T07:11:57.101Z,95.93
2019-03-17T07:12:57.023Z,96.09
2019-03-17T07:13:57.022Z,95.89
2019-03-17T07:14:57.038Z,95.78
2019-03-17T07:15:56.997Z,95.99
2019-03-17T07:16:57.010Z,95.78
2019-03-17T07:17:56.983Z,96.09
2019-03-17T07:18:56.965Z,95.26
2019-03-17T07:19:56.947Z,95.74
2019-03-17T07:20:56.941Z,94.70
2019-03-17T07:21:56.962Z,94.81
2019-03-17T07:22:56.924Z,94.49
2019-03-17T07:23:56.928Z,93.66
2019-03-17T07:24:56.917Z,93.66
2019-03-17T07:25:56.992Z,93.56
2019-03-17T07:26:56.874Z,93.35
2019-03-17T07:27:56.996Z,93.31
2019-03-17T07:28:56.889Z,93.62
2019-03-17T07:29:56.851Z,93.37
2019-03-17T07:30:56.829Z,93.48
2019-03-17T07:31:56.815Z,93.89
2019-03-17T07:32:56.830Z,93.37
2019-03-17T07:33:56.832Z,93.48
2019-03-17T07:34:56.791Z,93.06
2019-03-17T07:35:56.788Z,92.96
2019-03-17T07:36:56.835Z,92.91
2019-03-17T07:37:57.354Z,92.61
2019-03-17T07:38:56.761Z,92.61
2019-03-17T07:39:56.740Z,91.74
2019-03-17T07:40:56.732Z,91.32
2019-03-17T07:41:56.734Z,91.01
2019-03-17T07:42:56.701Z,90.91
2019-03-17T07:43:56.717Z,90.91
2019-03-17T07:44:56.708Z,91.07
2019-03-17T07:45:56.697Z,90.66
2019-03-17T07:46:56.711Z,90.56
2019-03-17T07:47:56.644Z,90.04
2019-03-17T07:48:56.651Z,90.04
2019-03-17T07:49:56.638Z,90.41
2019-03-17T07:50:56.702Z,89.59
2019-03-17T07:51:57.103Z,89.48
2019-03-17T07:52:56.623Z,88.65
2019-03-17T07:53:56.580Z,88.34
2019-03-17T07:54:56.581Z,88.51
2019-03-17T07:55:56.566Z,88.41
2019-03-17T07:56:56.634Z,88.41
2019-03-17T07:57:56.552Z,88.37
2019-03-17T07:58:57.210Z,87.23
2019-03-17T07:59:56.652Z,87.23
2019-03-17T08:00:56.511Z,87.13
2019-03-17T08:01:56.529Z,86.98
2019-03-17T08:02:56.506Z,86.43
2019-03-17T08:03:56.490Z,86.53
2019-03-17T08:04:56.494Z,86.12
2019-03-17T08:05:56.450Z,85.77
2019-03-17T08:06:56.459Z,84.94
2019-03-17T08:08:08.178Z,84.29
2019-03-17T08:08:57.473Z,83.67
2019-03-17T08:09:56.438Z,83.77
2019-03-17T08:10:56.462Z,83.94
2019-03-17T08:11:56.434Z,81.84
2019-03-17T08:12:56.387Z,81.29
2019-03-17T08:13:56.370Z,80.74
2019-03-17T08:14:57.801Z,80.19
2019-03-17T08:15:56.351Z,78.81
2019-03-17T08:16:56.348Z,77.75
2019-03-17T08:17:56.321Z,77.71
2019-03-17T08:18:56.308Z,76.96
2019-03-17T08:19:56.313Z,76.20
2019-03-17T08:20:56.438Z,76.00
2019-03-17T08:21:56.285Z,73.91
2019-03-17T08:22:56.288Z,72.96
2019-03-17T08:23:56.282Z,72.31
2019-03-17T08:24:56.263Z,72.20
2019-03-17T08:25:56.325Z,71.39
2019-03-17T08:26:56.264Z,71.25
2019-03-17T08:27:57.251Z,71.04
2019-03-17T08:28:56.349Z,71.25
2019-03-17T08:29:56.342Z,71.29
2019-03-17T08:30:56.197Z,70.06
2019-03-17T08:31:56.193Z,68.73
2019-03-17T08:32:56.282Z,69.14
2019-03-17T08:33:56.170Z,68.90
2019-03-17T08:34:56.162Z,68.26
2019-03-17T08:35:56.135Z,68.05
2019-03-17T08:36:56.139Z,68.36
2019-03-17T08:37:56.110Z,68.33
2019-03-17T08:38:56.143Z,68.33
2019-03-17T08:39:56.106Z,67.79
2019-03-17T08:40:56.131Z,67.68
2019-03-17T08:41:56.135Z,66.77
2019-03-17T08:42:56.073Z,67.65
2019-03-17T08:43:56.043Z,66.12
2019-03-17T08:44:56.263Z,65.78
2019-03-17T08:45:56.027Z,63.75
2019-03-17T08:46:56.008Z,63.64
2019-03-17T08:47:58.175Z,63.82
2019-03-17T08:48:55.996Z,63.54
2019-03-17T08:49:56.218Z,63.20
2019-03-17T08:50:55.972Z,64.32
2019-03-17T08:51:56.024Z,63.92
2019-03-17T08:52:55.973Z,64.63
2019-03-17T08:53:55.929Z,63.92
2019-03-17T08:54:55.925Z,63.41
2019-03-17T08:55:55.917Z,64.25
2019-03-17T08:56:55.915Z,64.15
2019-03-17T08:57:56.013Z,64.66
2019-03-17T08:58:55.878Z,64.05
2019-03-17T08:59:55.888Z,64.53
2019-03-17T09:00:55.889Z,64.73
2019-03-17T09:01:55.859Z,61.88
2019-03-17T09:02:55.837Z,62.90
2019-03-17T09:03:55.847Z,63.31
2019-03-17T09:04:55.885Z,62.77
2019-03-17T09:05:55.867Z,62.23
2019-03-17T09:06:55.824Z,60.30
2019-03-17T09:07:55.800Z,60.47
2019-03-17T09:08:55.801Z,61.49
2019-03-17T09:09:55.839Z,62.27
2019-03-17T09:10:55.762Z,60.21
2019-03-17T09:11:55.749Z,60.92
2019-03-17T09:12:55.730Z,58.65
2019-03-17T09:13:55.747Z,58.45
2019-03-17T09:14:55.770Z,59.16
2019-03-17T09:15:55.711Z,57.81
2019-03-17T09:16:55.699Z,58.22
2019-03-17T09:17:55.678Z,57.81
2019-03-17T09:18:56.199Z,58.63
2019-03-17T09:19:55.659Z,57.18
2019-03-17T09:20:55.653Z,58.29
2019-03-17T09:21:55.653Z,58.70
2019-03-17T09:22:55.636Z,58.33
2019-03-17T09:23:55.638Z,58.22
2019-03-17T09:24:55.688Z,57.59
2019-03-17T09:25:55.612Z,59.44
2019-03-17T09:26:55.609Z,57.59
2019-03-17T09:27:55.564Z,57.48
2019-03-17T09:28:55.556Z,57.48
2019-03-17T09:29:55.559Z,55.15
2019-03-17T09:30:55.567Z,56.77
2019-03-17T09:31:55.547Z,55.53
2019-03-17T09:32:55.525Z,56.24
2019-03-17T09:33:55.495Z,56.65
2019-03-17T09:34:55.558Z,55.50
2019-03-17T09:35:55.507Z,55.10
2019-03-17T09:36:55.513Z,53.78
2019-03-17T09:37:55.466Z,54.05
2019-03-17T09:38:55.468Z,53.72
2019-03-17T09:39:55.496Z,53.12
2019-03-17T09:40:55.520Z,52.89
2019-03-17T09:41:55.468Z,51.57
2019-03-17T09:42:55.423Z,51.55
2019-03-17T09:43:55.384Z,52.86
2019-03-17T09:44:55.387Z,53.17
2019-03-17T09:45:55.393Z,52.94
2019-03-17T09:46:55.356Z,52.54
2019-03-17T09:47:55.528Z,52.01
2019-03-17T09:48:55.358Z,51.70
2019-03-17T09:49:55.323Z,51.68
2019-03-17T09:50:55.312Z,51.07
2019-03-17T09:51:55.298Z,51.28
2019-03-17T09:52:55.289Z,50.37
2019-03-17T09:53:55.279Z,48.52
2019-03-17T09:54:55.330Z,50.04
2019-03-17T09:55:55.274Z,50.95
2019-03-17T09:56:55.272Z,49.51
2019-03-17T09:57:55.234Z,49.91
2019-03-17T09:58:55.236Z,51.32
2019-03-17T09:59:55.219Z,49.30
2019-03-17T10:00:55.246Z,49.99
2019-03-17T10:01:56.039Z,49.89
2019-03-17T10:02:55.221Z,51.00
2019-03-17T10:03:55.227Z,46.84
2019-03-17T10:04:55.278Z,45.83
2019-03-17T10:05:55.166Z,45.40
2019-03-17T10:06:55.140Z,45.61
2019-03-17T10:07:55.147Z,45.40
2019-03-17T10:09:00.028Z,44.90
2019-03-17T10:09:56.104Z,46.81
2019-03-17T10:10:55.124Z,45.38
2019-03-17T10:11:55.107Z,45.68
2019-03-17T10:12:55.073Z,45.07
2019-03-17T10:13:55.082Z,44.07
2019-03-17T10:14:55.059Z,44.67
2019-03-17T10:15:55.051Z,44.07
2019-03-17T10:16:55.062Z,44.67
2019-03-17T10:17:55.020Z,43.48
2019-03-17T10:18:55.008Z,43.59
2019-03-17T10:19:55.113Z,43.48
2019-03-17T10:20:55.000Z,44.87
2019-03-17T10:21:54.989Z,43.57
2019-03-17T10:22:54.985Z,44.45
2019-03-17T10:23:55.054Z,43.74
2019-03-17T10:24:54.990Z,44.83
2019-03-17T10:25:55.058Z,42.50
2019-03-17T10:26:54.919Z,42.50
2019-03-17T10:27:54.977Z,39.98
2019-03-17T10:28:54.911Z,39.48
2019-03-17T10:29:54.943Z,39.56
2019-03-17T10:30:54.919Z,39.23
2019-03-17T10:31:54.897Z,39.34
2019-03-17T10:32:54.857Z,37.91
2019-03-17T10:33:54.845Z,39.60
2019-03-17T10:34:54.876Z,40.00
2019-03-17T10:35:54.928Z,39.10
2019-03-17T10:36:54.819Z,39.78
2019-03-17T10:37:54.823Z,39.28
2019-03-17T10:38:54.791Z,39.58
2019-03-17T10:39:54.810Z,39.86
2019-03-17T10:40:54.797Z,37.85
2019-03-17T10:41:54.762Z,37.65
2019-03-17T10:42:54.810Z,39.45
2019-03-17T10:43:54.741Z,37.13
2019-03-17T10:44:54.910Z,35.33
2019-03-17T10:45:54.790Z,30.87
2019-03-17T10:46:54.704Z,29.30
2019-03-17T10:47:54.783Z,27.27
2019-03-17T10:48:54.696Z,30.22
2019-03-17T10:49:54.678Z,27.13
2019-03-17T10:50:54.806Z,27.23
2019-03-17T10:51:54.654Z,26.92
2019-03-17T10:52:54.803Z,26.82
2019-03-17T10:53:54.637Z,27.20
2019-03-17T10:54:54.629Z,25.81
2019-03-17T10:55:54.643Z,23.43
2019-03-17T10:56:54.602Z,24.54
2019-03-17T10:57:54.612Z,24.24
2019-03-17T10:58:54.717Z,24.54
2019-03-17T10:59:54.676Z,25.22
2019-03-17T11:00:54.575Z,25.10
2019-03-17T11:01:54.546Z,23.30
2019-03-17T11:02:54.544Z,21.80
2019-03-17T11:03:54.534Z,22.71
2019-03-17T11:04:54.525Z,22.21
2019-03-17T11:05:54.619Z,23.48
2019-03-17T11:06:54.523Z,21.08
2019-03-17T11:07:54.490Z,22.58
2019-03-17T11:08:54.476Z,23.26
2019-03-17T11:09:54.492Z,22.64
2019-03-17T11:10:54.511Z,20.65
2019-03-17T11:11:54.453Z,20.56
2019-03-17T11:12:54.445Z,22.44
2019-03-17T11:13:54.432Z,20.95
2019-03-17T11:14:54.438Z,20.45
2019-03-17T11:15:54.447Z,20.75
2019-03-17T11:16:54.459Z,20.64
2019-03-17T11:17:54.497Z,20.73
2019-03-17T11:18:54.368Z,21.03
2019-03-17T11:19:54.410Z,22.20
2019-03-17T11:20:54.372Z,19.73
2019-03-17T11:21:54.732Z,21.29
2019-03-17T11:22:54.416Z,18.51
2019-03-17T11:23:54.345Z,18.71
2019-03-17T11:24:54.334Z,17.82
2019-03-17T11:25:54.327Z,19.11
2019-03-17T11:26:55.738Z,20.41
2019-03-17T11:27:54.278Z,20.41
2019-03-17T11:28:54.274Z,19.92
2019-03-17T11:29:54.268Z,20.62
2019-03-17T11:30:54.258Z,20.43
2019-03-17T11:31:54.257Z,20.94
2019-03-17T11:32:54.257Z,22.41
2019-03-17T11:33:54.221Z,21.03
2019-03-17T11:34:54.230Z,20.84
2019-03-17T11:35:54.258Z,19.84
2019-03-17T11:36:54.193Z,20.13
2019-03-17T11:37:54.174Z,19.45
2019-03-17T11:38:54.174Z,20.94
2019-03-17T11:39:54.185Z,20.64
2019-03-17T11:40:54.181Z,19.64
2019-03-17T11:41:54.148Z,20.63
2019-03-17T11:42:54.149Z,19.33
2019-03-17T11:43:54.116Z,20.73
2019-03-17T11:44:54.226Z,20.42
2019-03-17T11:45:54.095Z,20.92
2019-03-17T11:46:54.083Z,21.22
2019-03-17T11:47:54.128Z,20.73
2019-03-17T11:48:54.099Z,21.03
2019-03-17T11:49:54.053Z,20.73
2019-03-17T11:50:54.192Z,19.93
2019-03-17T11:51:54.038Z,21.40
2019-03-17T11:52:54.021Z,19.13
2019-03-17T11:53:54.033Z,19.54
2019-03-17T11:54:54.011Z,20.42
2019-03-17T11:55:54.000Z,19.52
2019-03-17T11:56:54.076Z,20.30
2019-03-17T11:57:54.007Z,19.41
2019-03-17T11:58:53.976Z,19.02
2019-03-17T11:59:53.951Z,19.92
2019-03-17T12:00:53.975Z,18.84
2019-03-17T12:01:54.003Z,18.85
2019-03-17T12:02:53.922Z,18.88
2019-03-17T12:03:53.907Z,20.20
2019-03-17T12:04:53.896Z,19.61
2019-03-17T12:05:53.957Z,19.12
2019-03-17T12:06:53.898Z,20.12
2019-03-17T12:07:53.869Z,21.42
2019-03-17T12:08:53.881Z,22.03
2019-03-17T12:09:53.849Z,21.55
2019-03-17T12:10:53.848Z,21.55
2019-03-17T12:11:53.834Z,21.25
2019-03-17T12:12:53.850Z,22.27
2019-03-17T12:13:53.821Z,23.86
2019-03-17T12:14:53.793Z,22.77
2019-03-17T12:15:53.779Z,22.08
2019-03-17T12:16:53.802Z,23.00
2019-03-17T12:17:53.758Z,23.50
2019-03-17T12:18:53.758Z,23.12
2019-03-17T12:19:53.742Z,23.13
2019-03-17T12:20:53.728Z,24.23
2019-03-17T12:21:53.764Z,23.74
2019-03-17T12:22:53.714Z,23.74
2019-03-17T12:23:53.697Z,23.45
2019-03-17T12:24:53.697Z,24.65
2019-03-17T12:25:53.677Z,26.35
2019-03-17T12:26:53.679Z,25.35
2019-03-17T12:27:53.686Z,24.26
2019-03-17T12:28:53.648Z,24.55
2019-03-17T12:29:53.648Z,24.57
2019-03-17T12:30:53.635Z,24.46
2019-03-17T12:31:53.636Z,23.27
2019-03-17T12:32:53.606Z,24.27
2019-03-17T12:33:53.591Z,24.08
2019-03-17T12:34:53.588Z,24.49
2019-03-17T12:35:53.574Z,23.79
2019-03-17T12:36:53.572Z,26.10
2019-03-17T12:37:53.555Z,25.92
2019-03-17T12:38:53.543Z,25.21
2019-03-17T12:40:02.382Z,24.51
2019-03-17T12:40:54.523Z,25.52
2019-03-17T12:41:53.754Z,25.33
2019-03-17T12:42:53.497Z,25.84
2019-03-17T12:43:53.489Z,26.13
2019-03-17T12:44:53.479Z,26.13
2019-03-17T12:45:53.462Z,25.24
2019-03-17T12:46:53.470Z,26.25
2019-03-17T12:47:53.447Z,25.84
2019-03-17T12:48:53.482Z,25.74
2019-03-17T12:49:53.420Z,27.26
2019-03-17T12:50:53.535Z,28.27
2019-03-17T12:51:53.432Z,28.08